Nodine, Minnesota
Current Conditions -  °F | °C
As of 6:04 AM on Saturday 20 Dec 2014 (Local Time) from KLSE Reporting Station
Overcast Overcast  
Wind Chill: 25°   Ceiling: 1700
Heat Index: 30°   Visibility: 10mi
Dew Point: 24°   Wind: 5mph
Humidity: 79%   Direction: 150°SSE
Pressure: 30.22"   Gusts: NA
Location:  43.9163°N, 91.4255°W
Report Text: KLSE 201204Z 15004KT 10SM BKN017 OVC030 M01/M04 A3022 RMK AO2 T10111044 $
Loading
Personal Weather Stations






























Interactive Weather Map New forecast layout! Learn more

10-Day Weather Forecast

Advertisements
Track Severe Weather on mobile